Flight Track Log - Related Links

Times and Time Zones

All times are in EDT time to prevent confusion due to time zone crossing. See the FLG3861 flight status page for this flight to view local times or setup timezone preferences in your user account.

Time Position Orientation Groundspeed Altitude Reporting Facility
EDT Latitude Longitude Course Direction KTS MPH feet Rate Location/Type
Fri 10:09:05 PM 42.2008 -83.3522 163° South 149 171 1,600  Level Cleveland Center
Fri 10:10:30 PM 42.1300 -83.3225 163° South 236 272 4,600 1,922 Climbing Cleveland Center
Fri 10:11:13 PM 42.1208 -83.2522 100° East 276 318 5,700 2,286 Climbing Cleveland Center
Fri 10:12:15 PM 42.1589 -83.1475 64° Northeast 309 356 8,600 2,244 Climbing Cleveland Center
Fri 10:13:16 PM 42.1950 -83.0347 67° East 330 380 10,300 1,317 Climbing Cleveland Center
Fri 10:14:18 PM 42.2344 -82.9033 68° East 378 435 11,300 1,073 Climbing Cleveland Center
Fri 10:15:19 PM 42.2786 -82.7575 68° East 418 481 12,500 1,415 Climbing Cleveland Center
Fri 10:16:21 PM 42.3250 -82.6039 68° East 440 506 14,200 1,756 Climbing Cleveland Center
Fri 10:17:22 PM 42.3664 -82.4119 74° East 450 518 16,100 1,415 Climbing Cleveland Center
Fri 10:18:24 PM 42.3611 -82.2422 92° East 452 520 17,100 1,122 Climbing Cleveland Center
Fri 10:19:25 PM 42.3547 -82.0831 93° East 459 528 18,400 1,122 Climbing Cleveland Center
Fri 10:20:27 PM 42.3464 -81.9058 94° East 463 533 19,400 976 Climbing Cleveland Center
Fri 10:21:28 PM 42.3383 -81.7258 93° East 468 539 20,400 1,024 Climbing Cleveland Center
Fri 10:22:30 PM 42.3289 -81.5175 93° East 469 540 21,500 768 Climbing Cleveland Center
Fri 10:23:33 PM 42.3200 -81.3347 94° East 477 549 22,000 488 Climbing Cleveland Center
Fri 10:24:33 PM 42.3106 -81.1489 94° East 485 558 22,500 496 Climbing Cleveland Center
Fri 10:25:34 PM 42.3003 -80.9628 94° East 487 560 23,000 585 Climbing Cleveland Center
Fri 10:26:36 PM 42.2906 -80.7756 94° East 493 567 23,700 585 Climbing Cleveland Center
Fri 10:27:37 PM 42.2814 -80.5914 94° East 490 564 24,200 488 Climbing Cleveland Center
Fri 10:28:39 PM 42.2706 -80.4053 94° East 490 564 24,700 537 Climbing Cleveland Center
Fri 10:29:40 PM 42.2603 -80.2206 94° East 490 564 25,300 541 Climbing Cleveland Center
Fri 10:30:41 PM 42.2489 -80.0353 95° East 491 565 25,800 488 Climbing Cleveland Center
Fri 10:31:43 PM 42.2358 -79.8375 95° East 484 557 26,300 488 Climbing Cleveland Center
Fri 10:32:44 PM 42.2242 -79.6578 95° East 485 558 26,800 344 Climbing Cleveland Center
Fri 10:33:45 PM 42.2122 -79.4756 95° East 488 562 27,000 98 Climbing Cleveland Center
Fri 10:34:47 PM 42.2000 -79.2906 95° East 494 568 27,000  Level Cleveland Center
Fri 10:35:48 PM 42.1894 -79.1042 94° East 497 572 27,000  Level Cleveland Center
Fri 10:36:49 PM 42.1931 -78.8839 89° East 516 594 27,000  Level Cleveland Center
Fri 10:37:51 PM 42.1969 -78.6933 88° East 515 593 27,000  Level Cleveland Center
Fri 10:38:52 PM 42.1997 -78.5047 89° East 512 589 27,000  Level Cleveland Center
Fri 10:39:53 PM 42.2022 -78.3142 89° East 511 588 27,000 -244 Level Cleveland Center
Fri 10:40:55 PM 42.2047 -78.1272 89° East 508 585 26,500 -1,024 Descending Cleveland Center
Fri 10:41:56 PM 42.2067 -77.9372 89° East 509 586 24,900 -1,525 Descending Cleveland Center
Fri 10:42:57 PM 42.2083 -77.7456 89° East 515 593 23,400 -1,610 Descending Cleveland Center
Fri 10:43:59 PM 42.2092 -77.5647 90° East 494 568 21,600 -1,902 Descending Cleveland Center
Fri 10:45:00 PM 42.2097 -77.3536 90° East 479 551 19,500 -2,016 Descending Cleveland Center
Fri 10:46:01 PM 42.2108 -77.1808 89° East 468 539 17,500 -2,115 Descending Cleveland Center
Fri 10:47:02 PM 42.2111 -77.0167 90° East 446 513 15,200 -2,488 Descending Cleveland Center
Fri 10:48:04 PM 42.2103 -76.8586 90° East 426 490 12,400 -2,244 Descending Cleveland Center
Fri 10:49:05 PM 42.2108 -76.7006 90° East 428 493 10,600 -1,623 Descending Cleveland Center
Fri 10:50:06 PM 42.2278 -76.5847 79° East 337 388 9,100 -1,770 Descending Cleveland Center
Fri 10:51:07 PM 42.2608 -76.4733 68° East 324 373 7,000 -2,115 Descending Cleveland Center
Fri 10:52:08 PM 42.2961 -76.3514 69° East 315 362 4,800 -1,805 Descending Cleveland Center
Fri 10:53:10 PM 42.3311 -76.2503 65° Northeast 304 350 3,300 -506 Descending Cleveland Center
Fri 10:55:06 PM 42.3489 -76.1069 80° East 203 234 3,300  Level New York Center
Fri 10:56:06 PM 42.3069 -76.0700 147° Southeast 163 188 3,300 -100 Level New York Center
Fri 10:57:06 PM 42.2728 -76.0392 146° Southeast 157 181 3,100 -446 Descending New York Center
Fri 10:58:07 PM 42.2469 -76.0147 145° Southeast 137 158 2,400 -500 Descending New York Center
Fri 10:59:06 PM 42.2192 -75.9844 141° Southeast 137 158 2,100 -305 Descending New York Center

Login

Don't have an account? Register now (free) for customized features, flight alerts, and more!